September 27, 2022

Time Code Weather Temp. Visibility Ceiling Wind METAR/SPECI
6:35 am
V
54 °F 10 mi - 350° 350° 7 kt METAR KPXE 271035Z AUTO 35007KT 10SM CLR 12/10 A2999 RMK AO2 T01220100
6:15 am
V
54 °F 10 mi - 350° 350° 7 kt METAR KPXE 271015Z AUTO 35007KT 10SM CLR 12/10 A2999 RMK AO2 T01220101
5:55 am
V
54 °F 10 mi - 360° 360° 6 kt METAR KPXE 270955Z AUTO 36006KT 10SM CLR 12/10 A2999 RMK AO2 T01220102
5:35 am
V
54 °F 10 mi - 350° 350° 7 kt METAR KPXE 270935Z AUTO 35007KT 10SM CLR 12/10 A2998 RMK AO2 T01180101
5:15 am
V
54 °F 10 mi - 330° 330° 4 kt METAR KPXE 270915Z AUTO 33004KT 10SM CLR 12/10 A2998 RMK AO2 T01240102
4:55 am
V
54 °F 10 mi - 350° 350° 4 kt METAR KPXE 270855Z AUTO 35004KT 10SM CLR 12/10 A2998 RMK AO2 T01220102
4:35 am
V
55 °F 10 mi - 350° 350° 4 kt METAR KPXE 270835Z AUTO 35004KT 10SM CLR 13/10 A2998 RMK AO2 T01270102
4:15 am
V
54 °F 10 mi - 350° 350° 3 kt METAR KPXE 270815Z AUTO 35003KT 10SM CLR 12/11 A2998 RMK AO2 T01180105
3:55 am
V
54 °F 10 mi - 350° 350° 4 kt METAR KPXE 270755Z AUTO 35004KT 10SM CLR 12/11 A2998 RMK AO2 T01250107
3:35 am
V
54 °F 10 mi - 330° 330° 4 kt METAR KPXE 270735Z AUTO 33004KT 10SM CLR 12/11 A2999 RMK AO2 T01250108
3:15 am
V
54 °F 10 mi - 340° 340° 3 kt METAR KPXE 270715Z AUTO 34003KT 10SM CLR 12/11 A2999 RMK AO2 T01190113
2:55 am
V
54 °F 10 mi - Var 000° 0 kt METAR KPXE 270655Z AUTO 00000KT 10SM CLR 12/11 A2999 RMK AO2 T01200110
2:35 am
V
54 °F 10 mi - Var 000° 0 kt METAR KPXE 270635Z AUTO 00000KT 10SM CLR 12/11 A2999 RMK AO2 T01250111
2:15 am
V
54 °F 10 mi - Var 000° 0 kt METAR KPXE 270615Z AUTO 00000KT 10SM CLR 12/11 A2998 RMK AO2 T01180113
1:55 am
V
55 °F 10 mi - 320° 320° 3 kt METAR KPXE 270555Z AUTO 32003KT 10SM CLR 13/11 A2998 RMK AO2 T01280113 10197 20123
1:35 am
V
54 °F 10 mi - 320° 320° 3 kt METAR KPXE 270535Z AUTO 32003KT 10SM CLR 12/11 A2998 RMK AO2 T01240114
1:15 am
V
54 °F 10 mi - 210° 210° 3 kt METAR KPXE 270515Z AUTO 21003KT 10SM CLR 12/11 A2998 RMK AO2 T01240114
12:55 am
V
55 °F 10 mi - 190° 190° 3 kt METAR KPXE 270455Z AUTO 19003KT 10SM CLR 13/12 A2998 RMK AO2 T01330116
12:35 am
V
55 °F 10 mi - Var 000° 0 kt METAR KPXE 270435Z AUTO 00000KT 10SM CLR 13/12 A2997 RMK AO2 T01320116
12:15 am
V
55 °F 10 mi - 350° 350° 3 kt METAR KPXE 270415Z AUTO 35003KT 10SM CLR 13/12 A2997 RMK AO2 T01270119

September 26, 2022

Time Code Weather Temp. Visibility Ceiling Wind METAR/SPECI
11:55 pm
V
57 °F 10 mi - Var 000° 0 kt METAR KPXE 270355Z AUTO 00000KT 10SM CLR 14/12 A2997 RMK AO2 T01410117
11:35 pm
V
57 °F 10 mi - Var 000° 0 kt METAR KPXE 270335Z AUTO 00000KT 10SM CLR 14/12 A2997 RMK AO2 T01400116
11:15 pm
V
57 °F 10 mi - Var 000° 0 kt METAR KPXE 270315Z AUTO 00000KT 10SM CLR 14/12 A2997 RMK AO2 T01440119
10:55 pm
V
57 °F 10 mi - Var 000° 0 kt METAR KPXE 270255Z AUTO 00000KT 10SM CLR 14/12 A2997 RMK AO2 T01430117
10:35 pm
V
61 °F 10 mi - Var 000° 0 kt METAR KPXE 270235Z AUTO 00000KT 10SM CLR 16/11 A2996 RMK AO2 T01570114
10:15 pm
V
63 °F 10 mi - 350° 350° 3 kt METAR KPXE 270215Z AUTO 35003KT 10SM CLR 17/11 A2995 RMK AO2 T01720110
9:55 pm
V
64 °F 10 mi - 350° 350° 5 kt METAR KPXE 270155Z AUTO 35005KT 10SM CLR 18/10 A2995 RMK AO2 T01850104
9:35 pm
V
64 °F 10 mi - 350° 350° 6 kt METAR KPXE 270135Z AUTO 35006KT 10SM CLR 18/11 A2994 RMK AO2 T01800110
9:15 pm
V
64 °F 10 mi - 340° 340° 5 kt METAR KPXE 270115Z AUTO 34005KT 10SM CLR 18/11 A2993 RMK AO2 T01850111
8:55 pm
V
32 °F 10 mi - 340° 340° 4 kt METAR KPXE 270055Z AUTO 34004KT 10SM CLR A2992 RMK AO2
8:35 pm
V
32 °F 10 mi - 340° 340° 6 kt METAR KPXE 270035Z AUTO 34006KT 10SM CLR A2992 RMK AO2
8:15 pm
V
32 °F 10 mi - 340° 340° 7 kt METAR KPXE 270015Z AUTO 34007KT 10SM CLR A2990 RMK AO2
7:55 pm
V
32 °F 10 mi - 340° 340° 8 kt METAR KPXE 262355Z AUTO 34008KT 10SM CLR A2990 RMK AO2 402370157
7:35 pm
V
32 °F 10 mi - 340° 340° 7 kt METAR KPXE 262335Z AUTO 34007KT 10SM CLR A2990 RMK AO2
7:15 pm
V
32 °F 10 mi - 350° 350° 6 kt METAR KPXE 262315Z AUTO 35006KT 10SM CLR A2989 RMK AO2
6:55 pm
V
32 °F 10 mi - 340° 340° 8 kt METAR KPXE 262255Z AUTO 34008KT 10SM CLR A2989 RMK AO2
6:35 pm
V
32 °F 10 mi - 330° 330° 7 kt METAR KPXE 262235Z AUTO 33007KT 10SM CLR A2988 RMK AO2
6:15 pm
V
32 °F 10 mi - 320° 320° 8 kt METAR KPXE 262215Z AUTO 32008KT 10SM CLR A2987 RMK AO2
5:55 pm
V
32 °F 10 mi - 320° 320° 10 - 17 kt METAR KPXE 262155Z AUTO 32010G17KT 10SM CLR A2987 RMK AO2
5:35 pm
V
32 °F 10 mi - 300° 300° 10 kt METAR KPXE 262135Z AUTO 30010KT 10SM CLR A2987 RMK AO2
5:15 pm
V
32 °F 10 mi - 310° 310° 10 kt METAR KPXE 262115Z AUTO 31010KT 10SM CLR A2987 RMK AO2
4:55 pm
V
32 °F 10 mi - 310° 310° 6 - 15 kt METAR KPXE 262055Z AUTO 31006G15KT 10SM CLR A2987 RMK AO2
4:35 pm
V
32 °F 10 mi - 290° 290° 9 kt METAR KPXE 262035Z AUTO 29009KT 10SM CLR A2987 RMK AO2
4:15 pm
V
32 °F 10 mi - 290° 290° 10 kt METAR KPXE 262015Z AUTO 29010KT 270V330 10SM CLR A2987 RMK AO2
3:55 pm
V
32 °F 10 mi - 310° 310° 10 - 15 kt METAR KPXE 261955Z AUTO 31010G15KT 10SM CLR A2987 RMK AO2
3:35 pm
V
32 °F 10 mi - 250° 250° 10 - 14 kt METAR KPXE 261935Z AUTO 25010G14KT 10SM CLR A2988 RMK AO2
3:15 pm
V
32 °F 10 mi - 280° 280° 8 kt METAR KPXE 261915Z AUTO 28008KT 250V310 10SM CLR A2988 RMK AO2
2:55 pm
V
32 °F 10 mi - 310° 310° 11 - 17 kt METAR KPXE 261855Z AUTO 31011G17KT 10SM CLR A2988 RMK AO2
2:35 pm
V
32 °F 10 mi - 300° 300° 14 - 18 kt METAR KPXE 261835Z AUTO 30014G18KT 10SM SCT065 A2988 RMK AO2
2:15 pm
V
32 °F 10 mi - 330° 330° 10 kt METAR KPXE 261815Z AUTO 33010KT 10SM SCT065 A2989 RMK AO2
1:55 pm
V
32 °F 10 mi - 290° 290° 9 - 16 kt METAR KPXE 261755Z AUTO 29009G16KT 10SM SCT060 A2991 RMK AO2 10237 20163
1:35 pm
V
32 °F 10 mi - 280° 280° 11 - 16 kt METAR KPXE 261735Z AUTO 28011G16KT 10SM SCT050 SCT060 A2992 RMK AO2
1:15 pm
V
32 °F 10 mi - 260° 260° 7 kt METAR KPXE 261715Z AUTO 26007KT 10SM SCT049 SCT060 A2993 RMK AO2
12:55 pm
V
32 °F 10 mi - 340° 340° 8 - 15 kt METAR KPXE 261655Z AUTO 34008G15KT 280V350 10SM SCT045 A2993 RMK AO2
12:35 pm
V
32 °F 10 mi - 300° 300° 5 kt METAR KPXE 261635Z AUTO 30005KT 10SM CLR A2995 RMK AO2
12:15 pm
V
32 °F 10 mi - 290° 290° 8 kt METAR KPXE 261615Z AUTO 29008KT 10SM CLR A2995 RMK AO2
11:50 am
V
32 °F 10 mi - 310° 310° 9 kt METAR KPXE 261550Z AUTO 31009KT 10SM CLR A2996 RMK AO2
11:35 am
V
32 °F 10 mi - 350° 350° 7 kt METAR KPXE 261535Z AUTO 35007KT 10SM CLR A2996 RMK AO2
11:15 am
V
32 °F 10 mi - 340° 340° 7 kt METAR KPXE 261515Z AUTO 34007KT 10SM CLR A2997 RMK AO2
10:55 am
V
32 °F 10 mi - 330° 330° 8 kt METAR KPXE 261455Z AUTO 33008KT 10SM CLR A2996 RMK AO2
10:35 am
V
32 °F 10 mi - 330° 330° 8 kt METAR KPXE 261435Z AUTO 33008KT 10SM CLR A2996 RMK AO2
10:15 am
V
32 °F 10 mi - 330° 330° 6 kt METAR KPXE 261415Z AUTO 33006KT 10SM CLR A2996 RMK AO2
9:55 am
V
32 °F 10 mi - 340° 340° 7 kt METAR KPXE 261355Z AUTO 34007KT 10SM CLR A2995 RMK AO2
9:35 am
V
32 °F 10 mi - 350° 350° 6 kt METAR KPXE 261335Z AUTO 35006KT 10SM CLR A2995 RMK AO2
9:15 am
V
70 °F 10 mi - 350° 350° 7 kt METAR KPXE 261315Z AUTO 35007KT 10SM CLR 21/19 A2994 RMK AO2
8:55 am
V
70 °F 10 mi - 340° 340° 5 kt METAR KPXE 261255Z AUTO 34005KT 10SM CLR 21/19 A2994 RMK AO2 T02080193
8:35 am
V
66 °F 10 mi - 330° 330° 6 kt METAR KPXE 261235Z AUTO 33006KT 10SM CLR 19/18 A2994 RMK AO2 T01910184
8:15 am
V
64 °F 5 mi - Var 000° 0 kt METAR KPXE 261215Z AUTO 00000KT 5SM HZ CLR 18/ A2993 RMK AO2 T0176////
7:55 am
M
61 °F 4 mi - Var 000° 0 kt METAR KPXE 261155Z AUTO 00000KT 4SM BR CLR 16/16 A2993 RMK AO2 T0162//// 10179 20157
7:35 am
I
61 °F 3 mi - Var 000° 0 kt METAR KPXE 261135Z AUTO 00000KT 3SM BR CLR 16/16 A2993 RMK AO2 T01600160
7:15 am
I
61 °F 2½ mi - Var 000° 0 kt METAR KPXE 261115Z AUTO 00000KT 2 1/2SM BR CLR 16/16 A2992 RMK AO2 VIS 1V5 T01600160
6:55 am
V
61 °F 7 mi - Var 000° 0 kt METAR KPXE 261055Z AUTO 00000KT 7SM BR CLR 16/16 A2991 RMK AO2 T01600159
6:35 am
V
61 °F 5 mi - Var 000° 0 kt METAR KPXE 261035Z AUTO 00000KT 5SM BR CLR 16/16 A2991 RMK AO2 T01610160
6:15 am
V
63 °F 10 mi - Var 000° 0 kt METAR KPXE 261015Z AUTO 00000KT 10SM CLR 17/17 A2990 RMK AO2 T01710171
5:55 am
V
63 °F 5 mi - Var 000° 0 kt METAR KPXE 260955Z AUTO 00000KT 5SM BR CLR 17/17 A2990 RMK AO2 T01670166
5:35 am
V
63 °F 10 mi - Var 000° 0 kt METAR KPXE 260935Z AUTO 00000KT 10SM CLR 17/17 A2990 RMK AO2 T01670166
5:15 am
V
63 °F 10 mi - Var 000° 0 kt METAR KPXE 260915Z AUTO 00000KT 10SM CLR 17/17 A2990 RMK AO2 T01720172
4:55 am
V
63 °F 10 mi - Var 000° 0 kt METAR KPXE 260855Z AUTO 00000KT 10SM CLR 17/17 A2991 RMK AO2 T01740173
4:35 am
V
63 °F 10 mi - Var 000° 0 kt METAR KPXE 260835Z AUTO 00000KT 10SM CLR 17/17 A2990 RMK AO2 T01710171
4:15 am
V
63 °F 10 mi - Var 000° 0 kt METAR KPXE 260815Z AUTO 00000KT 10SM CLR 17/17 A2991 RMK AO2 T01720172
3:55 am
V
63 °F 7 mi - Var 000° 0 kt METAR KPXE 260755Z AUTO 00000KT 7SM BR CLR 17/17 A2991 RMK AO2 T01700170
3:35 am
I
63 °F 1½ mi 700 ft Var 000° 0 kt METAR KPXE 260735Z AUTO 00000KT 1 1/2SM BR VV007 17/17 A2991 RMK AO2 VIS 1/2V5 T01720172
3:15 am
M
63 °F 4 mi - Var 000° 0 kt METAR KPXE 260715Z AUTO 00000KT 4SM BR CLR 17/17 A2991 RMK AO2 T01720171
2:55 am
V
63 °F 7 mi - Var 000° 0 kt METAR KPXE 260655Z AUTO 00000KT 7SM BR CLR 17/17 A2992 RMK AO2 T01730172
2:35 am
V
64 °F 10 mi - Var 000° 0 kt METAR KPXE 260635Z AUTO 00000KT 10SM CLR 18/17 A2992 RMK AO2 T01750175
2:15 am
V
64 °F 7 mi - Var 000° 0 kt METAR KPXE 260615Z AUTO 00000KT 7SM BR CLR 18/18 A2992 RMK AO2 T01780178
1:55 am
V
64 °F 10 mi - Var 000° 0 kt METAR KPXE 260555Z AUTO 00000KT 10SM CLR 18/18 A2992 RMK AO2 T01780177 10221 20177
1:35 am
V
64 °F 7 mi - Var 000° 0 kt METAR KPXE 260535Z AUTO 00000KT 7SM BR CLR 18/18 A2992 RMK AO2 T01830183
1:15 am
V
64 °F 7 mi - Var 000° 0 kt METAR KPXE 260515Z AUTO 00000KT 7SM BR CLR 18/18 A2993 RMK AO2 T01800178
12:55 am
V
64 °F 10 mi - Var 000° 0 kt METAR KPXE 260455Z AUTO 00000KT 10SM CLR 18/18 A2993 RMK AO2 T01810178
12:35 am
V
64 °F 7 mi - Var 000° 0 kt METAR KPXE 260435Z AUTO 00000KT 7SM CLR 18/18 A2993 RMK AO2 T01830182
12:15 am
V
66 °F 10 mi - Var 000° 0 kt METAR KPXE 260415Z AUTO 00000KT 10SM CLR 19/19 A2993 RMK AO2 T01890186

September 25, 2022

Time Code Weather Temp. Visibility Ceiling Wind METAR/SPECI
11:55 pm
V
66 °F 10 mi - Var 000° 0 kt METAR KPXE 260355Z AUTO 00000KT 10SM CLR 19/19 A2993 RMK AO2 T01900186
11:35 pm
V
66 °F 10 mi - Var 000° 0 kt METAR KPXE 260335Z AUTO 00000KT 10SM CLR 19/18 A2993 RMK AO2 T01900185
11:15 pm
V
68 °F 10 mi - Var 000° 0 kt METAR KPXE 260315Z AUTO 00000KT 10SM CLR 20/19 A2992 RMK AO2 T01950190
10:55 pm
V
66 °F 10 mi - 200° 200° 3 kt METAR KPXE 260255Z AUTO 20003KT 10SM CLR 19/19 A2992 RMK AO2 T01950191
10:35 pm
V
68 °F 10 mi - Var 000° 0 kt METAR KPXE 260235Z AUTO 00000KT 10SM CLR 20/19 A2992 RMK AO2 T01970194
10:15 pm
V
68 °F 10 mi - Var 000° 0 kt METAR KPXE 260215Z AUTO 00000KT 10SM CLR 20/19 A2992 RMK AO2 T01970193
9:55 pm
V
68 °F 10 mi - Var 000° 0 kt METAR KPXE 260155Z AUTO 00000KT 10SM CLR 20/19 A2991 RMK AO2 T01970193
9:35 pm
V
68 °F 10 mi - Var 000° 0 kt METAR KPXE 260135Z AUTO 00000KT 10SM CLR 20/20 A2990 RMK AO2 T02010196
9:15 pm
V
68 °F 10 mi - Var 000° 0 kt METAR KPXE 260115Z AUTO 00000KT 10SM CLR 20/20 A2990 RMK AO2 T02050197
8:55 pm
V
72 °F 10 mi - Var 000° 0 kt METAR KPXE 260055Z AUTO 00000KT 10SM CLR 22/20 A2989 RMK AO2 T02180201
8:35 pm
V
70 °F 10 mi - Var 000° 0 kt METAR KPXE 260035Z AUTO 00000KT 10SM CLR 21/20 A2989 RMK AO2 T02090201
8:15 pm
V
72 °F 10 mi - Var 000° 0 kt METAR KPXE 260015Z AUTO 00000KT 10SM CLR 22/20 A2989 RMK AO2
7:55 pm
V
32 °F 10 mi - Var 000° 0 kt METAR KPXE 252355Z AUTO 00000KT 10SM CLR A2988 RMK AO2 10240 20222 402950134
7:35 pm
V
32 °F 10 mi - Var 000° 0 kt METAR KPXE 252335Z AUTO 00000KT 10SM CLR A2988 RMK AO2
7:15 pm
V
32 °F 10 mi - Var 000° 0 kt METAR KPXE 252315Z AUTO 00000KT 10SM CLR A2988 RMK AO2
6:55 pm
V
32 °F 10 mi - 310° 310° 3 kt METAR KPXE 252255Z AUTO 31003KT 10SM CLR A2988 RMK AO2
6:35 pm
V
32 °F 10 mi - 350° 350° 3 kt METAR KPXE 252235Z AUTO 35003KT 10SM CLR A2989 RMK AO2
6:15 pm
V
32 °F 10 mi - 350° 350° 5 kt METAR KPXE 252215Z AUTO 35005KT 10SM CLR A2989 RMK AO2
5:55 pm
V
32 °F 10 mi - 350° 350° 4 kt METAR KPXE 252155Z AUTO 35004KT 10SM SCT055 A2989 RMK AO2
5:35 pm
V
32 °F 10 mi 6,500 ft 330° 330° 5 kt METAR KPXE 252135Z AUTO 33005KT 10SM BKN065 BKN080 A2989 RMK AO2
5:15 pm
V
32 °F 10 mi - 290° 290° 3 kt METAR KPXE 252115Z AUTO 29003KT 10SM SCT065 SCT080 A2989 RMK AO2
4:55 pm
V
32 °F 10 mi - 270° 270° 4 kt METAR KPXE 252055Z AUTO 27004KT 10SM SCT065 A2989 RMK AO2
4:35 pm
V
32 °F 10 mi - 280° 280° 5 kt METAR KPXE 252035Z AUTO 28005KT 10SM SCT055 A2990 RMK AO2
4:15 pm
V
32 °F 10 mi - Var 000° 0 kt METAR KPXE 252015Z AUTO 00000KT 10SM SCT055 A2990 RMK AO2
3:55 pm
V
32 °F 10 mi - 260° 260° 5 kt METAR KPXE 251955Z AUTO 26005KT 10SM SCT055 A2991 RMK AO2
3:35 pm
V
32 °F 10 mi - 270° 270° 7 kt METAR KPXE 251935Z AUTO 27007KT 10SM CLR A2991 RMK AO2
3:15 pm
V
32 °F 10 mi - 310° 310° 7 kt METAR KPXE 251915Z AUTO 31007KT 10SM CLR A2992 RMK AO2
2:55 pm
V
32 °F 10 mi - Var 000° 0 kt METAR KPXE 251855Z AUTO 00000KT 10SM CLR A2992 RMK AO2
2:35 pm
V
32 °F 10 mi - Var 000° 0 kt METAR KPXE 251835Z AUTO 00000KT 10SM CLR A2993 RMK AO2
2:15 pm
V
32 °F 10 mi - 210° 210° 6 kt METAR KPXE 251815Z AUTO 21006KT 10SM CLR A2995 RMK AO2
1:55 pm
V
32 °F 10 mi - 270° 270° 5 kt METAR KPXE 251755Z AUTO 27005KT 10SM CLR A2995 RMK AO2 10295 20143
1:35 pm
V
32 °F 10 mi - 220° 220° 5 kt METAR KPXE 251735Z AUTO 22005KT 10SM CLR A2996 RMK AO2
1:15 pm
V
32 °F 10 mi - 200° 200° 4 kt METAR KPXE 251715Z AUTO 20004KT 10SM CLR A2997 RMK AO2
12:55 pm
V
32 °F 10 mi - 230° 230° 8 kt METAR KPXE 251655Z AUTO 23008KT 10SM CLR A2997 RMK AO2
12:35 pm
V
32 °F 10 mi - 220° 220° 4 kt METAR KPXE 251635Z AUTO 22004KT 10SM CLR A2998 RMK AO2
12:15 pm
V
32 °F 10 mi - 230° 230° 6 kt METAR KPXE 251615Z AUTO 23006KT 10SM CLR A2999 RMK AO2
11:55 am
V
32 °F 10 mi - 180° 180° 8 kt METAR KPXE 251555Z AUTO 18008KT 10SM CLR A2999 RMK AO2
11:35 am
V
32 °F 10 mi - 200° 200° 8 kt METAR KPXE 251535Z AUTO 20008KT 10SM CLR A3000 RMK AO2
11:15 am
V
32 °F 10 mi - 250° 250° 7 kt METAR KPXE 251515Z AUTO 25007KT 190V250 10SM CLR A3001 RMK AO2
10:55 am
V
32 °F 10 mi - 210° 210° 7 kt METAR KPXE 251455Z AUTO 21007KT 10SM CLR A3001 RMK AO2 LTG DSNT NW
10:35 am
V
32 °F 10 mi - 210° 210° 8 kt METAR KPXE 251435Z AUTO 21008KT 10SM CLR A3002 RMK AO2
10:15 am
V
32 °F 10 mi - 230° 230° 7 kt METAR KPXE 251415Z AUTO 23007KT 10SM CLR A3002 RMK AO2
9:55 am
V
70 °F 10 mi - 230° 230° 6 kt METAR KPXE 251355Z AUTO 23006KT 10SM CLR 21/18 A3002 RMK AO2
9:35 am
V
70 °F 10 mi - 190° 190° 4 kt METAR KPXE 251335Z AUTO 19004KT 10SM CLR 21/18 A3002 RMK AO2 T02080176
9:15 am
V
66 °F 10 mi - Var 000° 0 kt METAR KPXE 251315Z AUTO 00000KT 10SM CLR 19/17 A3002 RMK AO2 T01950171
8:55 am
V
64 °F 10 mi - Var 000° 0 kt METAR KPXE 251255Z AUTO 00000KT 10SM CLR 18/16 A3002 RMK AO2 T01810164
8:35 am
V
63 °F 10 mi - Var 000° 0 kt METAR KPXE 251235Z AUTO 00000KT 10SM CLR 17/15 A3003 RMK AO2 T01650155
8:15 am
V
59 °F 10 mi - Var 000° 0 kt METAR KPXE 251215Z AUTO 00000KT 10SM CLR 15/15 A3003 RMK AO2 T01530147
7:55 am
V
57 °F 10 mi - Var 000° 0 kt METAR KPXE 251155Z AUTO 00000KT 10SM CLR 14/14 A3002 RMK AO2 T01420141 10145 20134
7:35 am
V
57 °F 10 mi - Var 000° 0 kt METAR KPXE 251135Z AUTO 00000KT 10SM CLR 14/14 A3002 RMK AO2 T01380138
7:15 am
V
57 °F 10 mi - Var 000° 0 kt METAR KPXE 251115Z AUTO 00000KT 10SM CLR 14/14 A3001 RMK AO2 T01370136
6:55 am
V
57 °F 10 mi - Var 000° 0 kt METAR KPXE 251055Z AUTO 00000KT 10SM CLR 14/14 A3001 RMK AO2 T01370136
Older data

We and third parties follow your internet behavior on our website with cookies. If you continue, we assume you agree with our cookie policy. Learn more